sensor_id;sensor_type;location;lat;lon;timestamp;P1;durP1;ratioP1;P2;durP2;ratioP2
70138;SDS011;57507;43.056;0.150;2023-07-29T00:00:49;3.85;;;1.73;;
70138;SDS011;57507;43.056;0.150;2023-07-29T00:03:15;3.80;;;2.35;;
70138;SDS011;57507;43.056;0.150;2023-07-29T00:05:41;2.20;;;1.63;;
70138;SDS011;57507;43.056;0.150;2023-07-29T00:08:07;6.00;;;1.70;;
70138;SDS011;57507;43.056;0.150;2023-07-29T00:10:35;3.45;;;1.98;;
70138;SDS011;57507;43.056;0.150;2023-07-29T00:13:02;2.67;;;2.00;;
70138;SDS011;57507;43.056;0.150;2023-07-29T00:15:28;3.00;;;1.80;;
70138;SDS011;57507;43.056;0.150;2023-07-29T00:17:54;2.67;;;2.03;;
70138;SDS011;57507;43.056;0.150;2023-07-29T00:20:20;4.38;;;1.92;;
70138;SDS011;57507;43.056;0.150;2023-07-29T00:22:46;3.75;;;2.40;;
70138;SDS011;57507;43.056;0.150;2023-07-29T00:25:14;5.30;;;2.53;;
70138;SDS011;57507;43.056;0.150;2023-07-29T00:27:40;3.58;;;1.73;;
70138;SDS011;57507;43.056;0.150;2023-07-29T00:30:07;5.22;;;2.05;;
70138;SDS011;57507;43.056;0.150;2023-07-29T00:32:33;6.68;;;2.25;;
70138;SDS011;57507;43.056;0.150;2023-07-29T00:34:59;3.55;;;2.30;;
70138;SDS011;57507;43.056;0.150;2023-07-29T00:37:26;4.18;;;1.98;;
70138;SDS011;57507;43.056;0.150;2023-07-29T00:39:52;3.28;;;2.13;;
70138;SDS011;57507;43.056;0.150;2023-07-29T00:42:18;3.08;;;2.15;;
70138;SDS011;57507;43.056;0.150;2023-07-29T00:44:44;2.55;;;2.05;;
70138;SDS011;57507;43.056;0.150;2023-07-29T00:47:10;4.30;;;2.00;;
70138;SDS011;57507;43.056;0.150;2023-07-29T00:49:37;3.53;;;2.03;;
70138;SDS011;57507;43.056;0.150;2023-07-29T00:52:03;3.85;;;2.28;;
70138;SDS011;57507;43.056;0.150;2023-07-29T00:54:29;4.05;;;2.25;;
70138;SDS011;57507;43.056;0.150;2023-07-29T00:56:55;3.13;;;1.88;;
70138;SDS011;57507;43.056;0.150;2023-07-29T00:59:21;2.92;;;2.22;;
70138;SDS011;57507;43.056;0.150;2023-07-29T01:01:48;3.67;;;2.08;;
70138;SDS011;57507;43.056;0.150;2023-07-29T01:04:14;3.85;;;2.40;;
70138;SDS011;57507;43.056;0.150;2023-07-29T01:09:13;5.10;;;2.05;;
70138;SDS011;57507;43.056;0.150;2023-07-29T01:16:46;3.03;;;2.25;;
70138;SDS011;57507;43.056;0.150;2023-07-29T01:19:48;3.72;;;2.00;;
70138;SDS011;57507;43.056;0.150;2023-07-29T01:22:05;4.60;;;1.98;;
70138;SDS011;57507;43.056;0.150;2023-07-29T01:24:32;3.38;;;2.22;;
70138;SDS011;57507;43.056;0.150;2023-07-29T01:26:58;4.68;;;1.95;;
70138;SDS011;57507;43.056;0.150;2023-07-29T01:29:26;3.38;;;2.10;;
70138;SDS011;57507;43.056;0.150;2023-07-29T01:31:53;3.42;;;1.98;;
70138;SDS011;57507;43.056;0.150;2023-07-29T01:34:23;3.35;;;2.33;;
70138;SDS011;57507;43.056;0.150;2023-07-29T01:36:50;5.00;;;2.13;;
70138;SDS011;57507;43.056;0.150;2023-07-29T01:39:17;3.92;;;2.10;;
70138;SDS011;57507;43.056;0.150;2023-07-29T01:41:44;2.75;;;1.95;;
70138;SDS011;57507;43.056;0.150;2023-07-29T01:44:10;5.30;;;2.38;;
70138;SDS011;57507;43.056;0.150;2023-07-29T01:46:37;5.50;;;2.30;;
70138;SDS011;57507;43.056;0.150;2023-07-29T01:49:03;3.10;;;2.00;;
70138;SDS011;57507;43.056;0.150;2023-07-29T01:51:29;2.90;;;2.00;;
70138;SDS011;57507;43.056;0.150;2023-07-29T01:53:55;2.00;;;1.80;;
70138;SDS011;57507;43.056;0.150;2023-07-29T01:56:21;3.85;;;2.88;;
70138;SDS011;57507;43.056;0.150;2023-07-29T01:58:47;3.40;;;1.77;;
70138;SDS011;57507;43.056;0.150;2023-07-29T02:01:13;2.15;;;1.80;;
70138;SDS011;57507;43.056;0.150;2023-07-29T02:03:40;4.97;;;2.50;;
70138;SDS011;57507;43.056;0.150;2023-07-29T02:06:06;2.85;;;2.10;;
70138;SDS011;57507;43.056;0.150;2023-07-29T02:08:32;3.55;;;2.60;;
70138;SDS011;57507;43.056;0.150;2023-07-29T02:10:58;5.40;;;2.15;;
70138;SDS011;57507;43.056;0.150;2023-07-29T02:13:24;3.03;;;1.80;;
70138;SDS011;57507;43.056;0.150;2023-07-29T02:15:50;3.03;;;1.83;;
70138;SDS011;57507;43.056;0.150;2023-07-29T02:18:16;3.38;;;2.25;;
70138;SDS011;57507;43.056;0.150;2023-07-29T02:20:43;3.28;;;2.25;;
70138;SDS011;57507;43.056;0.150;2023-07-29T02:23:14;3.05;;;2.25;;
70138;SDS011;57507;43.056;0.150;2023-07-29T02:25:41;4.05;;;2.10;;
70138;SDS011;57507;43.056;0.150;2023-07-29T02:28:07;3.75;;;2.10;;
70138;SDS011;57507;43.056;0.150;2023-07-29T02:30:33;4.47;;;1.90;;
70138;SDS011;57507;43.056;0.150;2023-07-29T02:32:59;3.25;;;2.00;;
70138;SDS011;57507;43.056;0.150;2023-07-29T02:35:26;3.78;;;1.80;;
70138;SDS011;57507;43.056;0.150;2023-07-29T02:37:52;3.25;;;2.17;;
70138;SDS011;57507;43.056;0.150;2023-07-29T02:40:18;3.55;;;1.98;;
70138;SDS011;57507;43.056;0.150;2023-07-29T02:42:46;3.22;;;2.03;;
70138;SDS011;57507;43.056;0.150;2023-07-29T02:45:12;3.78;;;1.80;;
70138;SDS011;57507;43.056;0.150;2023-07-29T02:47:38;2.58;;;2.03;;
70138;SDS011;57507;43.056;0.150;2023-07-29T02:50:04;3.22;;;1.90;;
70138;SDS011;57507;43.056;0.150;2023-07-29T02:52:30;2.55;;;2.10;;
70138;SDS011;57507;43.056;0.150;2023-07-29T02:54:56;2.45;;;2.00;;
70138;SDS011;57507;43.056;0.150;2023-07-29T02:57:22;2.80;;;2.15;;
70138;SDS011;57507;43.056;0.150;2023-07-29T02:59:48;2.53;;;1.88;;
70138;SDS011;57507;43.056;0.150;2023-07-29T03:02:14;3.50;;;2.00;;
70138;SDS011;57507;43.056;0.150;2023-07-29T03:04:41;3.03;;;1.70;;
70138;SDS011;57507;43.056;0.150;2023-07-29T03:07:07;3.80;;;2.47;;
70138;SDS011;57507;43.056;0.150;2023-07-29T03:09:33;2.13;;;1.55;;
70138;SDS011;57507;43.056;0.150;2023-07-29T03:11:59;4.28;;;2.40;;
70138;SDS011;57507;43.056;0.150;2023-07-29T03:14:25;2.97;;;1.80;;
70138;SDS011;57507;43.056;0.150;2023-07-29T03:16:52;2.67;;;2.05;;
70138;SDS011;57507;43.056;0.150;2023-07-29T03:19:18;3.65;;;2.20;;
70138;SDS011;57507;43.056;0.150;2023-07-29T03:21:44;4.30;;;2.10;;
70138;SDS011;57507;43.056;0.150;2023-07-29T03:24:11;3.75;;;2.20;;
70138;SDS011;57507;43.056;0.150;2023-07-29T03:26:37;4.25;;;2.70;;
70138;SDS011;57507;43.056;0.150;2023-07-29T03:29:03;2.70;;;2.10;;
70138;SDS011;57507;43.056;0.150;2023-07-29T03:31:29;5.90;;;2.40;;
70138;SDS011;57507;43.056;0.150;2023-07-29T03:33:55;2.83;;;1.90;;
70138;SDS011;57507;43.056;0.150;2023-07-29T03:36:21;2.55;;;2.08;;
70138;SDS011;57507;43.056;0.150;2023-07-29T03:38:47;4.63;;;2.60;;
70138;SDS011;57507;43.056;0.150;2023-07-29T03:41:13;4.18;;;2.25;;
70138;SDS011;57507;43.056;0.150;2023-07-29T03:43:39;3.70;;;2.35;;
70138;SDS011;57507;43.056;0.150;2023-07-29T03:46:05;3.72;;;1.98;;
70138;SDS011;57507;43.056;0.150;2023-07-29T03:48:31;4.78;;;2.30;;
70138;SDS011;57507;43.056;0.150;2023-07-29T03:50:57;1.98;;;1.67;;
70138;SDS011;57507;43.056;0.150;2023-07-29T03:53:23;2.83;;;1.90;;
70138;SDS011;57507;43.056;0.150;2023-07-29T03:55:50;3.47;;;2.20;;
70138;SDS011;57507;43.056;0.150;2023-07-29T03:58:16;3.28;;;2.00;;
70138;SDS011;57507;43.056;0.150;2023-07-29T04:00:42;2.97;;;2.15;;
70138;SDS011;57507;43.056;0.150;2023-07-29T04:03:08;3.38;;;1.92;;
70138;SDS011;57507;43.056;0.150;2023-07-29T04:05:34;2.78;;;2.20;;
70138;SDS011;57507;43.056;0.150;2023-07-29T04:08:00;3.17;;;2.03;;
70138;SDS011;57507;43.056;0.150;2023-07-29T04:10:26;3.20;;;2.05;;
70138;SDS011;57507;43.056;0.150;2023-07-29T04:12:52;2.63;;;1.90;;
70138;SDS011;57507;43.056;0.150;2023-07-29T04:15:19;3.53;;;2.20;;
70138;SDS011;57507;43.056;0.150;2023-07-29T04:17:45;2.50;;;1.95;;
70138;SDS011;57507;43.056;0.150;2023-07-29T04:20:11;2.70;;;2.03;;
70138;SDS011;57507;43.056;0.150;2023-07-29T04:22:37;3.67;;;1.95;;
70138;SDS011;57507;43.056;0.150;2023-07-29T04:25:04;2.55;;;2.03;;
70138;SDS011;57507;43.056;0.150;2023-07-29T04:27:30;5.28;;;2.30;;
70138;SDS011;57507;43.056;0.150;2023-07-29T04:29:56;4.00;;;2.28;;
70138;SDS011;57507;43.056;0.150;2023-07-29T04:32:22;2.88;;;2.00;;
70138;SDS011;57507;43.056;0.150;2023-07-29T04:34:48;3.25;;;2.03;;
70138;SDS011;57507;43.056;0.150;2023-07-29T04:37:14;2.70;;;1.90;;
70138;SDS011;57507;43.056;0.150;2023-07-29T04:39:40;4.35;;;1.92;;
70138;SDS011;57507;43.056;0.150;2023-07-29T04:42:06;2.83;;;2.05;;
70138;SDS011;57507;43.056;0.150;2023-07-29T04:44:32;3.25;;;1.95;;
70138;SDS011;57507;43.056;0.150;2023-07-29T04:46:58;3.55;;;2.17;;
70138;SDS011;57507;43.056;0.150;2023-07-29T04:49:24;4.13;;;2.08;;
70138;SDS011;57507;43.056;0.150;2023-07-29T04:51:50;2.63;;;1.85;;
70138;SDS011;57507;43.056;0.150;2023-07-29T04:54:16;4.20;;;2.42;;
70138;SDS011;57507;43.056;0.150;2023-07-29T04:56:45;2.50;;;2.00;;
70138;SDS011;57507;43.056;0.150;2023-07-29T04:59:11;3.50;;;2.03;;
70138;SDS011;57507;43.056;0.150;2023-07-29T05:01:38;2.90;;;1.77;;
70138;SDS011;57507;43.056;0.150;2023-07-29T05:04:04;4.43;;;2.80;;
70138;SDS011;57507;43.056;0.150;2023-07-29T05:06:30;4.40;;;2.38;;
70138;SDS011;57507;43.056;0.150;2023-07-29T05:08:57;3.75;;;2.38;;
70138;SDS011;57507;43.056;0.150;2023-07-29T05:11:23;2.28;;;1.85;;
70138;SDS011;57507;43.056;0.150;2023-07-29T05:13:50;2.92;;;1.85;;
70138;SDS011;57507;43.056;0.150;2023-07-29T05:16:16;2.75;;;1.75;;
70138;SDS011;57507;43.056;0.150;2023-07-29T05:18:42;2.83;;;2.17;;
70138;SDS011;57507;43.056;0.150;2023-07-29T05:21:08;2.60;;;1.83;;
70138;SDS011;57507;43.056;0.150;2023-07-29T05:23:36;2.38;;;1.98;;
70138;SDS011;57507;43.056;0.150;2023-07-29T05:26:02;2.80;;;1.98;;
70138;SDS011;57507;43.056;0.150;2023-07-29T05:28:28;3.28;;;2.20;;
70138;SDS011;57507;43.056;0.150;2023-07-29T05:30:54;2.67;;;1.80;;
70138;SDS011;57507;43.056;0.150;2023-07-29T05:33:20;3.03;;;2.20;;
70138;SDS011;57507;43.056;0.150;2023-07-29T05:35:46;2.38;;;1.98;;
70138;SDS011;57507;43.056;0.150;2023-07-29T05:38:12;3.65;;;2.20;;
70138;SDS011;57507;43.056;0.150;2023-07-29T05:40:38;3.13;;;2.10;;
70138;SDS011;57507;43.056;0.150;2023-07-29T05:43:04;4.07;;;2.30;;
70138;SDS011;57507;43.056;0.150;2023-07-29T05:45:30;3.20;;;2.40;;
70138;SDS011;57507;43.056;0.150;2023-07-29T05:47:56;3.63;;;2.45;;
70138;SDS011;57507;43.056;0.150;2023-07-29T05:50:22;3.17;;;2.40;;
70138;SDS011;57507;43.056;0.150;2023-07-29T05:52:48;3.10;;;2.40;;
70138;SDS011;57507;43.056;0.150;2023-07-29T05:55:14;4.43;;;2.38;;
70138;SDS011;57507;43.056;0.150;2023-07-29T05:57:40;3.25;;;2.10;;
70138;SDS011;57507;43.056;0.150;2023-07-29T06:00:07;4.07;;;2.38;;
70138;SDS011;57507;43.056;0.150;2023-07-29T06:02:33;2.65;;;1.98;;
70138;SDS011;57507;43.056;0.150;2023-07-29T06:04:59;4.72;;;2.60;;
70138;SDS011;57507;43.056;0.150;2023-07-29T06:07:28;4.38;;;2.58;;
70138;SDS011;57507;43.056;0.150;2023-07-29T06:09:55;4.65;;;2.70;;
70138;SDS011;57507;43.056;0.150;2023-07-29T06:12:22;5.72;;;2.63;;
70138;SDS011;57507;43.056;0.150;2023-07-29T06:14:48;3.78;;;2.70;;
70138;SDS011;57507;43.056;0.150;2023-07-29T06:17:14;6.22;;;3.20;;
70138;SDS011;57507;43.056;0.150;2023-07-29T06:19:40;4.55;;;2.90;;
70138;SDS011;57507;43.056;0.150;2023-07-29T06:22:06;4.80;;;3.13;;
70138;SDS011;57507;43.056;0.150;2023-07-29T06:24:33;5.47;;;2.90;;
70138;SDS011;57507;43.056;0.150;2023-07-29T06:26:59;4.20;;;3.25;;
70138;SDS011;57507;43.056;0.150;2023-07-29T06:29:25;6.63;;;3.33;;
70138;SDS011;57507;43.056;0.150;2023-07-29T06:31:51;6.78;;;3.33;;
70138;SDS011;57507;43.056;0.150;2023-07-29T06:34:17;3.63;;;3.10;;
70138;SDS011;57507;43.056;0.150;2023-07-29T06:36:43;5.30;;;3.38;;
70138;SDS011;57507;43.056;0.150;2023-07-29T06:39:09;6.80;;;3.17;;
70138;SDS011;57507;43.056;0.150;2023-07-29T06:41:36;6.65;;;3.92;;
70138;SDS011;57507;43.056;0.150;2023-07-29T06:44:02;6.43;;;3.90;;
70138;SDS011;57507;43.056;0.150;2023-07-29T06:46:28;5.53;;;3.33;;
70138;SDS011;57507;43.056;0.150;2023-07-29T06:48:54;4.53;;;3.03;;
70138;SDS011;57507;43.056;0.150;2023-07-29T06:51:20;10.43;;;3.67;;
70138;SDS011;57507;43.056;0.150;2023-07-29T06:53:46;5.93;;;3.35;;
70138;SDS011;57507;43.056;0.150;2023-07-29T06:56:12;3.75;;;3.00;;
70138;SDS011;57507;43.056;0.150;2023-07-29T06:58:38;5.20;;;2.92;;
70138;SDS011;57507;43.056;0.150;2023-07-29T07:01:04;5.57;;;3.30;;
70138;SDS011;57507;43.056;0.150;2023-07-29T07:03:30;6.53;;;3.65;;
70138;SDS011;57507;43.056;0.150;2023-07-29T07:05:56;9.13;;;3.67;;
70138;SDS011;57507;43.056;0.150;2023-07-29T07:08:22;5.30;;;3.33;;
70138;SDS011;57507;43.056;0.150;2023-07-29T07:10:48;8.93;;;3.63;;
70138;SDS011;57507;43.056;0.150;2023-07-29T07:13:14;7.28;;;3.33;;
70138;SDS011;57507;43.056;0.150;2023-07-29T07:15:40;4.40;;;2.97;;
70138;SDS011;57507;43.056;0.150;2023-07-29T07:18:06;6.20;;;3.40;;
70138;SDS011;57507;43.056;0.150;2023-07-29T07:20:32;5.65;;;3.95;;
70138;SDS011;57507;43.056;0.150;2023-07-29T07:22:58;5.85;;;4.03;;
70138;SDS011;57507;43.056;0.150;2023-07-29T07:25:24;4.75;;;3.38;;
70138;SDS011;57507;43.056;0.150;2023-07-29T07:27:50;7.60;;;3.95;;
70138;SDS011;57507;43.056;0.150;2023-07-29T07:30:17;5.45;;;3.03;;
70138;SDS011;57507;43.056;0.150;2023-07-29T07:32:43;5.15;;;3.63;;
70138;SDS011;57507;43.056;0.150;2023-07-29T07:35:10;5.13;;;3.65;;
70138;SDS011;57507;43.056;0.150;2023-07-29T07:37:36;6.75;;;3.70;;
70138;SDS011;57507;43.056;0.150;2023-07-29T07:40:02;6.93;;;3.60;;
70138;SDS011;57507;43.056;0.150;2023-07-29T07:42:28;5.70;;;3.42;;
70138;SDS011;57507;43.056;0.150;2023-07-29T07:44:54;4.55;;;3.28;;
70138;SDS011;57507;43.056;0.150;2023-07-29T07:47:20;7.82;;;3.78;;
70138;SDS011;57507;43.056;0.150;2023-07-29T07:49:46;4.53;;;3.38;;
70138;SDS011;57507;43.056;0.150;2023-07-29T07:52:14;5.32;;;3.15;;
70138;SDS011;57507;43.056;0.150;2023-07-29T07:54:40;5.85;;;3.40;;
70138;SDS011;57507;43.056;0.150;2023-07-29T07:57:06;4.75;;;3.50;;
70138;SDS011;57507;43.056;0.150;2023-07-29T07:59:32;5.40;;;3.58;;
70138;SDS011;57507;43.056;0.150;2023-07-29T08:01:58;5.95;;;3.65;;
70138;SDS011;57507;43.056;0.150;2023-07-29T08:04:24;4.53;;;3.22;;
70138;SDS011;57507;43.056;0.150;2023-07-29T08:06:50;4.93;;;2.85;;
70138;SDS011;57507;43.056;0.150;2023-07-29T08:09:16;3.42;;;2.88;;
70138;SDS011;57507;43.056;0.150;2023-07-29T08:11:42;4.38;;;2.85;;
70138;SDS011;57507;43.056;0.150;2023-07-29T08:14:08;3.95;;;2.80;;
70138;SDS011;57507;43.056;0.150;2023-07-29T08:16:34;8.07;;;3.00;;
70138;SDS011;57507;43.056;0.150;2023-07-29T08:19:00;4.63;;;3.20;;
70138;SDS011;57507;43.056;0.150;2023-07-29T08:21:26;3.45;;;2.58;;
70138;SDS011;57507;43.056;0.150;2023-07-29T08:23:53;4.50;;;2.72;;
70138;SDS011;57507;43.056;0.150;2023-07-29T08:26:19;5.10;;;2.42;;
70138;SDS011;57507;43.056;0.150;2023-07-29T08:28:45;3.72;;;3.05;;
70138;SDS011;57507;43.056;0.150;2023-07-29T08:31:11;6.88;;;2.65;;
70138;SDS011;57507;43.056;0.150;2023-07-29T08:33:37;3.72;;;2.40;;
70138;SDS011;57507;43.056;0.150;2023-07-29T08:36:03;3.78;;;2.53;;
70138;SDS011;57507;43.056;0.150;2023-07-29T08:38:29;3.22;;;2.50;;
70138;SDS011;57507;43.056;0.150;2023-07-29T08:41:13;3.28;;;2.72;;
70138;SDS011;57507;43.056;0.150;2023-07-29T08:46:21;4.30;;;2.70;;
70138;SDS011;57507;43.056;0.150;2023-07-29T08:48:47;2.65;;;2.22;;
70138;SDS011;57507;43.056;0.150;2023-07-29T08:51:13;3.22;;;2.47;;
70138;SDS011;57507;43.056;0.150;2023-07-29T08:53:40;3.80;;;2.90;;
70138;SDS011;57507;43.056;0.150;2023-07-29T08:56:06;3.53;;;2.33;;
70138;SDS011;57507;43.056;0.150;2023-07-29T08:58:33;3.72;;;2.20;;
70138;SDS011;57507;43.056;0.150;2023-07-29T09:00:59;2.88;;;2.10;;
70138;SDS011;57507;43.056;0.150;2023-07-29T09:03:25;3.45;;;2.13;;
70138;SDS011;57507;43.056;0.150;2023-07-29T09:05:51;6.32;;;2.67;;
70138;SDS011;57507;43.056;0.150;2023-07-29T09:08:18;3.15;;;2.25;;
70138;SDS011;57507;43.056;0.150;2023-07-29T09:10:46;5.30;;;2.47;;
70138;SDS011;57507;43.056;0.150;2023-07-29T09:13:12;3.63;;;2.50;;
70138;SDS011;57507;43.056;0.150;2023-07-29T09:15:38;4.30;;;2.50;;
70138;SDS011;57507;43.056;0.150;2023-07-29T09:18:17;3.13;;;2.50;;
70138;SDS011;57507;43.056;0.150;2023-07-29T09:20:45;3.00;;;2.25;;
70138;SDS011;57507;43.056;0.150;2023-07-29T09:23:12;3.72;;;2.22;;
70138;SDS011;57507;43.056;0.150;2023-07-29T09:25:38;2.38;;;2.10;;
70138;SDS011;57507;43.056;0.150;2023-07-29T09:28:11;2.88;;;2.20;;
70138;SDS011;57507;43.056;0.150;2023-07-29T09:30:38;2.38;;;2.10;;
70138;SDS011;57507;43.056;0.150;2023-07-29T09:33:04;2.60;;;2.20;;
70138;SDS011;57507;43.056;0.150;2023-07-29T09:35:32;2.45;;;2.05;;
70138;SDS011;57507;43.056;0.150;2023-07-29T09:37:58;2.95;;;1.90;;
70138;SDS011;57507;43.056;0.150;2023-07-29T09:40:24;2.67;;;2.13;;
70138;SDS011;57507;43.056;0.150;2023-07-29T09:42:51;2.28;;;2.08;;
70138;SDS011;57507;43.056;0.150;2023-07-29T09:45:21;4.93;;;2.05;;
70138;SDS011;57507;43.056;0.150;2023-07-29T09:47:48;3.05;;;2.10;;
70138;SDS011;57507;43.056;0.150;2023-07-29T09:50:14;3.10;;;2.10;;
70138;SDS011;57507;43.056;0.150;2023-07-29T09:52:40;2.25;;;1.92;;
70138;SDS011;57507;43.056;0.150;2023-07-29T09:55:07;2.20;;;2.00;;
70138;SDS011;57507;43.056;0.150;2023-07-29T09:57:33;2.67;;;2.13;;
70138;SDS011;57507;43.056;0.150;2023-07-29T10:00:01;2.50;;;2.03;;
70138;SDS011;57507;43.056;0.150;2023-07-29T10:02:30;2.45;;;2.10;;
70138;SDS011;57507;43.056;0.150;2023-07-29T10:04:56;3.90;;;2.30;;
70138;SDS011;57507;43.056;0.150;2023-07-29T10:07:23;2.20;;;2.00;;
70138;SDS011;57507;43.056;0.150;2023-07-29T10:09:51;2.60;;;1.90;;
70138;SDS011;57507;43.056;0.150;2023-07-29T10:12:18;2.42;;;2.03;;
70138;SDS011;57507;43.056;0.150;2023-07-29T10:14:44;2.58;;;2.20;;
70138;SDS011;57507;43.056;0.150;2023-07-29T10:17:13;4.05;;;2.45;;
70138;SDS011;57507;43.056;0.150;2023-07-29T10:19:41;2.33;;;2.00;;
70138;SDS011;57507;43.056;0.150;2023-07-29T10:22:08;2.00;;;1.80;;
70138;SDS011;57507;43.056;0.150;2023-07-29T10:24:34;2.38;;;2.10;;
70138;SDS011;57507;43.056;0.150;2023-07-29T10:27:03;2.35;;;1.92;;
70138;SDS011;57507;43.056;0.150;2023-07-29T10:29:31;2.42;;;1.77;;
70138;SDS011;57507;43.056;0.150;2023-07-29T10:32:01;2.88;;;2.20;;
70138;SDS011;57507;43.056;0.150;2023-07-29T10:34:29;5.15;;;2.47;;
70138;SDS011;57507;43.056;0.150;2023-07-29T10:36:55;2.97;;;2.67;;
70138;SDS011;57507;43.056;0.150;2023-07-29T10:39:21;2.65;;;2.17;;
70138;SDS011;57507;43.056;0.150;2023-07-29T10:47:24;2.55;;;1.92;;
70138;SDS011;57507;43.056;0.150;2023-07-29T10:49:53;3.80;;;2.50;;
70138;SDS011;57507;43.056;0.150;2023-07-29T10:55:01;3.13;;;2.53;;
70138;SDS011;57507;43.056;0.150;2023-07-29T10:59:57;3.10;;;2.40;;
70138;SDS011;57507;43.056;0.150;2023-07-29T11:02:30;2.35;;;2.10;;
70138;SDS011;57507;43.056;0.150;2023-07-29T11:04:57;4.00;;;2.33;;
70138;SDS011;57507;43.056;0.150;2023-07-29T11:07:24;3.97;;;2.55;;
70138;SDS011;57507;43.056;0.150;2023-07-29T11:15:03;2.42;;;2.00;;
70138;SDS011;57507;43.056;0.150;2023-07-29T11:17:30;2.40;;;2.20;;
70138;SDS011;57507;43.056;0.150;2023-07-29T11:19:58;3.47;;;2.00;;
70138;SDS011;57507;43.056;0.150;2023-07-29T11:22:25;3.47;;;2.50;;
70138;SDS011;57507;43.056;0.150;2023-07-29T11:24:51;2.65;;;1.92;;
70138;SDS011;57507;43.056;0.150;2023-07-29T11:27:17;2.55;;;2.30;;
70138;SDS011;57507;43.056;0.150;2023-07-29T11:29:43;2.40;;;2.08;;
70138;SDS011;57507;43.056;0.150;2023-07-29T11:32:09;2.97;;;2.63;;
70138;SDS011;57507;43.056;0.150;2023-07-29T11:34:36;2.88;;;2.25;;
70138;SDS011;57507;43.056;0.150;2023-07-29T11:37:02;2.20;;;1.95;;
70138;SDS011;57507;43.056;0.150;2023-07-29T11:39:28;2.55;;;2.20;;
70138;SDS011;57507;43.056;0.150;2023-07-29T11:41:54;2.75;;;2.50;;
70138;SDS011;57507;43.056;0.150;2023-07-29T11:44:20;2.50;;;2.10;;
70138;SDS011;57507;43.056;0.150;2023-07-29T11:46:46;3.30;;;2.53;;
70138;SDS011;57507;43.056;0.150;2023-07-29T11:49:13;2.47;;;2.28;;
70138;SDS011;57507;43.056;0.150;2023-07-29T11:51:41;2.35;;;2.15;;
70138;SDS011;57507;43.056;0.150;2023-07-29T11:54:07;2.80;;;2.50;;
70138;SDS011;57507;43.056;0.150;2023-07-29T11:56:34;2.72;;;2.13;;
70138;SDS011;57507;43.056;0.150;2023-07-29T11:59:01;2.42;;;2.08;;
70138;SDS011;57507;43.056;0.150;2023-07-29T12:01:28;3.30;;;2.50;;
70138;SDS011;57507;43.056;0.150;2023-07-29T12:03:55;3.42;;;2.33;;
70138;SDS011;57507;43.056;0.150;2023-07-29T12:06:22;2.75;;;2.25;;
70138;SDS011;57507;43.056;0.150;2023-07-29T12:08:49;3.03;;;2.20;;
70138;SDS011;57507;43.056;0.150;2023-07-29T12:11:15;2.83;;;2.53;;
70138;SDS011;57507;43.056;0.150;2023-07-29T12:13:42;2.50;;;2.22;;
70138;SDS011;57507;43.056;0.150;2023-07-29T12:16:08;3.20;;;2.58;;
70138;SDS011;57507;43.056;0.150;2023-07-29T12:18:34;3.63;;;2.30;;
70138;SDS011;57507;43.056;0.150;2023-07-29T12:21:02;2.63;;;2.30;;
70138;SDS011;57507;43.056;0.150;2023-07-29T12:23:29;2.40;;;2.20;;
70138;SDS011;57507;43.056;0.150;2023-07-29T12:25:56;3.50;;;2.33;;
70138;SDS011;57507;43.056;0.150;2023-07-29T12:28:23;3.13;;;2.22;;
70138;SDS011;57507;43.056;0.150;2023-07-29T12:30:56;2.65;;;2.25;;
70138;SDS011;57507;43.056;0.150;2023-07-29T12:33:32;2.97;;;2.60;;
70138;SDS011;57507;43.056;0.150;2023-07-29T12:35:58;3.95;;;2.63;;
70138;SDS011;57507;43.056;0.150;2023-07-29T12:38:27;3.13;;;2.47;;
70138;SDS011;57507;43.056;0.150;2023-07-29T12:40:53;3.83;;;2.70;;
70138;SDS011;57507;43.056;0.150;2023-07-29T12:43:20;2.75;;;2.50;;
70138;SDS011;57507;43.056;0.150;2023-07-29T12:45:46;3.40;;;2.20;;
70138;SDS011;57507;43.056;0.150;2023-07-29T12:48:12;2.53;;;2.20;;
70138;SDS011;57507;43.056;0.150;2023-07-29T12:50:38;4.40;;;2.92;;
70138;SDS011;57507;43.056;0.150;2023-07-29T12:53:04;2.85;;;2.03;;
70138;SDS011;57507;43.056;0.150;2023-07-29T12:55:31;2.85;;;2.63;;
70138;SDS011;57507;43.056;0.150;2023-07-29T12:57:57;4.68;;;2.80;;
70138;SDS011;57507;43.056;0.150;2023-07-29T13:00:24;3.63;;;2.88;;
70138;SDS011;57507;43.056;0.150;2023-07-29T13:02:50;3.88;;;2.70;;
70138;SDS011;57507;43.056;0.150;2023-07-29T13:05:16;4.30;;;2.97;;
70138;SDS011;57507;43.056;0.150;2023-07-29T13:07:43;3.00;;;2.70;;
70138;SDS011;57507;43.056;0.150;2023-07-29T13:10:09;3.65;;;2.97;;
70138;SDS011;57507;43.056;0.150;2023-07-29T13:12:35;3.55;;;2.70;;
70138;SDS011;57507;43.056;0.150;2023-07-29T13:15:01;3.25;;;2.70;;
70138;SDS011;57507;43.056;0.150;2023-07-29T13:17:28;3.55;;;2.85;;
70138;SDS011;57507;43.056;0.150;2023-07-29T13:19:54;3.17;;;2.63;;
70138;SDS011;57507;43.056;0.150;2023-07-29T13:22:20;2.78;;;2.50;;
70138;SDS011;57507;43.056;0.150;2023-07-29T13:24:46;3.22;;;2.85;;
70138;SDS011;57507;43.056;0.150;2023-07-29T13:27:12;3.72;;;2.90;;
70138;SDS011;57507;43.056;0.150;2023-07-29T13:29:39;3.13;;;2.60;;
70138;SDS011;57507;43.056;0.150;2023-07-29T13:32:05;3.63;;;2.70;;
70138;SDS011;57507;43.056;0.150;2023-07-29T13:34:31;3.17;;;2.80;;
70138;SDS011;57507;43.056;0.150;2023-07-29T13:36:59;3.05;;;2.75;;
70138;SDS011;57507;43.056;0.150;2023-07-29T13:39:25;3.10;;;2.60;;
70138;SDS011;57507;43.056;0.150;2023-07-29T13:41:52;3.40;;;2.85;;
70138;SDS011;57507;43.056;0.150;2023-07-29T13:44:18;3.47;;;2.83;;
70138;SDS011;57507;43.056;0.150;2023-07-29T13:46:44;2.95;;;2.58;;
70138;SDS011;57507;43.056;0.150;2023-07-29T13:49:10;2.92;;;2.63;;
70138;SDS011;57507;43.056;0.150;2023-07-29T13:51:36;3.42;;;3.13;;
70138;SDS011;57507;43.056;0.150;2023-07-29T13:54:03;3.85;;;2.70;;
70138;SDS011;57507;43.056;0.150;2023-07-29T13:56:29;3.10;;;2.80;;
70138;SDS011;57507;43.056;0.150;2023-07-29T13:58:55;2.60;;;2.40;;
70138;SDS011;57507;43.056;0.150;2023-07-29T14:01:21;2.72;;;2.53;;
70138;SDS011;57507;43.056;0.150;2023-07-29T14:03:47;3.17;;;2.88;;
70138;SDS011;57507;43.056;0.150;2023-07-29T14:06:13;4.15;;;2.60;;
70138;SDS011;57507;43.056;0.150;2023-07-29T14:08:39;3.70;;;2.78;;
70138;SDS011;57507;43.056;0.150;2023-07-29T14:11:06;2.83;;;2.53;;
70138;SDS011;57507;43.056;0.150;2023-07-29T14:13:33;3.20;;;2.55;;
70138;SDS011;57507;43.056;0.150;2023-07-29T14:16:02;4.57;;;3.10;;
70138;SDS011;57507;43.056;0.150;2023-07-29T14:18:28;4.30;;;2.55;;
70138;SDS011;57507;43.056;0.150;2023-07-29T14:20:55;3.03;;;2.72;;
70138;SDS011;57507;43.056;0.150;2023-07-29T14:23:21;4.15;;;3.08;;
70138;SDS011;57507;43.056;0.150;2023-07-29T14:25:47;3.78;;;2.97;;
70138;SDS011;57507;43.056;0.150;2023-07-29T14:28:13;3.33;;;2.88;;
70138;SDS011;57507;43.056;0.150;2023-07-29T14:30:39;2.70;;;2.40;;
70138;SDS011;57507;43.056;0.150;2023-07-29T14:33:06;2.90;;;2.60;;
70138;SDS011;57507;43.056;0.150;2023-07-29T14:35:32;4.13;;;3.00;;
70138;SDS011;57507;43.056;0.150;2023-07-29T14:37:58;2.95;;;2.65;;
70138;SDS011;57507;43.056;0.150;2023-07-29T14:40:24;3.42;;;2.90;;
70138;SDS011;57507;43.056;0.150;2023-07-29T14:42:51;4.20;;;2.75;;
70138;SDS011;57507;43.056;0.150;2023-07-29T14:45:18;2.80;;;2.50;;
70138;SDS011;57507;43.056;0.150;2023-07-29T14:47:44;5.65;;;3.00;;
70138;SDS011;57507;43.056;0.150;2023-07-29T14:50:10;4.07;;;2.90;;
70138;SDS011;57507;43.056;0.150;2023-07-29T14:52:36;3.15;;;2.83;;
70138;SDS011;57507;43.056;0.150;2023-07-29T14:55:02;4.75;;;3.10;;
70138;SDS011;57507;43.056;0.150;2023-07-29T14:57:28;3.55;;;3.00;;
70138;SDS011;57507;43.056;0.150;2023-07-29T14:59:54;3.40;;;2.90;;
70138;SDS011;57507;43.056;0.150;2023-07-29T15:02:20;3.30;;;3.00;;
70138;SDS011;57507;43.056;0.150;2023-07-29T15:04:47;3.13;;;2.80;;
70138;SDS011;57507;43.056;0.150;2023-07-29T15:07:13;3.47;;;2.72;;
70138;SDS011;57507;43.056;0.150;2023-07-29T15:09:39;3.10;;;2.80;;